Time;durP1;ratioP1;P1;durP2;ratioP2;P2;SDS_P1;SDS_P2;PMS_P1;PMS_P2;Temp;Humidity;BMP_temperature;BMP_pressure;BME280_temperature;BME280_humidity;BME280_pressure;Samples;Min_cycle;Max_cycle;Signal;HPM_P1;HPM_P2
2022/07/18 00:01:16;;;;;;;3.65;1.42;;;;;;;;;;10248832;28;20045;-65
2022/07/18 00:06:14;;;;;;;9.90;2.13;;;;;;;;;;10243847;28;20092;-64
2022/07/18 00:11:14;;;;;;;5.43;1.77;;;;;;;;;;10247909;28;20080;-65
2022/07/18 00:16:12;;;;;;;4.72;1.40;;;;;;;;;;10235861;28;20498;-64
2022/07/18 00:21:11;;;;;;;5.35;1.60;;;;;;;;;;10232696;28;20069;-65
2022/07/18 00:26:09;;;;;;;7.35;1.98;;;;;;;;;;10234397;28;20092;-65
2022/07/18 00:31:09;;;;;;;3.05;1.50;;;;;;;;;;10241404;28;20069;-65
2022/07/18 00:36:07;;;;;;;3.88;1.40;;;;;;;;;;10246692;28;20081;-65
2022/07/18 00:41:06;;;;;;;4.68;1.33;;;;;;;;;;10234803;28;20053;-65
2022/07/18 00:46:05;;;;;;;6.05;1.38;;;;;;;;;;10233745;28;20096;-65
2022/07/18 00:51:05;;;;;;;5.43;1.48;;;;;;;;;;10233830;28;20502;-66
2022/07/18 00:56:04;;;;;;;3.67;1.45;;;;;;;;;;10239328;28;20065;-65
2022/07/18 01:06:21;;;;;;;2.00;1.40;;;;;;;;;;10238615;28;20069;-64
2022/07/18 01:11:21;;;;;;;3.25;1.15;;;;;;;;;;10246570;28;20083;-66
2022/07/18 01:16:19;;;;;;;3.17;1.50;;;;;;;;;;10233201;28;20451;-65
2022/07/18 01:21:19;;;;;;;2.38;1.35;;;;;;;;;;10227089;28;20076;-65
2022/07/18 01:26:18;;;;;;;5.05;1.70;;;;;;;;;;10226620;28;20519;-65
2022/07/18 01:31:17;;;;;;;3.30;1.20;;;;;;;;;;10246158;28;20072;-65
2022/07/18 01:36:16;;;;;;;4.80;1.60;;;;;;;;;;10226785;28;20076;-65
2022/07/18 01:41:15;;;;;;;2.63;1.20;;;;;;;;;;10232656;28;20125;-65
2022/07/18 01:46:14;;;;;;;1.27;1.15;;;;;;;;;;10229654;28;20073;-66
2022/07/18 01:51:12;;;;;;;2.45;1.48;;;;;;;;;;10226787;28;20077;-67
2022/07/18 01:56:12;;;;;;;4.07;1.48;;;;;;;;;;10232757;28;20077;-67
2022/07/18 02:01:13;;;;;;;4.55;2.13;;;;;;;;;;10249377;28;20455;-67
2022/07/18 02:06:12;;;;;;;2.20;1.20;;;;;;;;;;10243609;28;20085;-67
2022/07/18 02:11:10;;;;;;;2.83;1.65;;;;;;;;;;10252051;28;20072;-68
2022/07/18 02:16:08;;;;;;;2.75;1.17;;;;;;;;;;10251183;28;20073;-68
2022/07/18 02:21:08;;;;;;;2.50;0.80;;;;;;;;;;10251825;28;20103;-68
2022/07/18 02:26:07;;;;;;;4.22;1.15;;;;;;;;;;10252296;28;20586;-67
2022/07/18 02:31:06;;;;;;;2.75;1.42;;;;;;;;;;10245600;28;20123;-67
2022/07/18 02:36:05;;;;;;;3.38;1.00;;;;;;;;;;10251540;28;20095;-67
2022/07/18 02:41:07;;;;;;;5.35;1.17;;;;;;;;;;10246201;28;20470;-67
2022/07/18 02:46:05;;;;;;;3.15;1.15;;;;;;;;;;10250906;28;20081;-67
2022/07/18 02:51:04;;;;;;;1.63;1.30;;;;;;;;;;10251218;28;20083;-68
2022/07/18 02:56:02;;;;;;;2.05;1.10;;;;;;;;;;10250602;28;20081;-67
2022/07/18 03:01:02;;;;;;;2.70;1.00;;;;;;;;;;10249943;28;20080;-68
2022/07/18 03:06:02;;;;;;;1.20;1.10;;;;;;;;;;10250043;28;20062;-68
2022/07/18 03:11:00;;;;;;;1.80;1.23;;;;;;;;;;10242843;28;20087;-68
2022/07/18 03:15:58;;;;;;;4.82;0.95;;;;;;;;;;10247673;28;20081;-67
2022/07/18 03:20:58;;;;;;;2.55;1.10;;;;;;;;;;10249642;28;20478;-67
2022/07/18 03:25:57;;;;;;;6.40;1.23;;;;;;;;;;10249708;28;20522;-67
2022/07/18 03:30:58;;;;;;;4.47;1.90;;;;;;;;;;10249775;28;20061;-67
2022/07/18 03:35:58;;;;;;;6.03;1.67;;;;;;;;;;10249099;28;20490;-67
2022/07/18 03:40:56;;;;;;;8.07;1.48;;;;;;;;;;10249263;28;20081;-69
2022/07/18 03:45:55;;;;;;;4.53;1.35;;;;;;;;;;10243158;28;20065;-67
2022/07/18 03:50:53;;;;;;;3.80;2.17;;;;;;;;;;10248748;28;20072;-67
2022/07/18 03:55:53;;;;;;;2.92;1.30;;;;;;;;;;10242553;28;20076;-67
2022/07/18 04:00:51;;;;;;;3.75;1.50;;;;;;;;;;10249017;28;20085;-67
2022/07/18 04:05:50;;;;;;;1.73;1.50;;;;;;;;;;10244089;28;20084;-67
2022/07/18 04:10:48;;;;;;;2.72;1.75;;;;;;;;;;10236292;28;20085;-67
2022/07/18 04:15:48;;;;;;;5.75;2.40;;;;;;;;;;10231732;28;20099;-68
2022/07/18 04:20:46;;;;;;;7.90;1.65;;;;;;;;;;10229808;28;20525;-67
2022/07/18 04:25:45;;;;;;;4.72;1.23;;;;;;;;;;10244329;28;20291;-67
2022/07/18 04:30:44;;;;;;;1.60;1.15;;;;;;;;;;10248015;28;20073;-66
2022/07/18 04:35:43;;;;;;;5.43;1.52;;;;;;;;;;10232635;28;20088;-67
2022/07/18 04:40:42;;;;;;;1.42;1.17;;;;;;;;;;10232430;28;20480;-67
2022/07/18 04:45:40;;;;;;;7.63;1.80;;;;;;;;;;10246515;28;20148;-66
2022/07/18 04:50:38;;;;;;;2.78;2.03;;;;;;;;;;10246250;28;20104;-67
2022/07/18 04:55:38;;;;;;;5.40;2.40;;;;;;;;;;10244752;28;20076;-67
2022/07/18 05:00:36;;;;;;;7.65;2.05;;;;;;;;;;10245418;28;20077;-67
2022/07/18 05:05:35;;;;;;;1.40;1.05;;;;;;;;;;10237839;28;20107;-67
2022/07/18 05:10:34;;;;;;;2.75;2.10;;;;;;;;;;10233578;28;20080;-67
2022/07/18 05:15:34;;;;;;;4.28;2.97;;;;;;;;;;10235039;28;20089;-67
2022/07/18 05:20:32;;;;;;;6.60;3.83;;;;;;;;;;10225655;28;20133;-67
2022/07/18 05:25:35;;;;;;;4.35;2.05;;;;;;;;;;10243830;28;20108;-67
2022/07/18 05:30:35;;;;;;;3.67;1.38;;;;;;;;;;10240416;28;20073;-67
2022/07/18 05:35:33;;;;;;;3.03;1.40;;;;;;;;;;10242629;28;20165;-67
2022/07/18 05:40:32;;;;;;;5.53;1.92;;;;;;;;;;10243235;28;20088;-68
2022/07/18 05:45:31;;;;;;;4.03;1.20;;;;;;;;;;10245424;28;20112;-66
2022/07/18 05:50:30;;;;;;;2.60;1.30;;;;;;;;;;10246458;28;20079;-67
2022/07/18 05:55:29;;;;;;;2.15;1.00;;;;;;;;;;10245508;28;20479;-67
2022/07/18 06:00:28;;;;;;;8.98;1.55;;;;;;;;;;10245795;28;20089;-67
2022/07/18 06:05:26;;;;;;;2.33;0.90;;;;;;;;;;10240145;28;20088;-68
2022/07/18 06:10:27;;;;;;;1.85;0.80;;;;;;;;;;10245117;28;20076;-68
2022/07/18 06:15:25;;;;;;;4.25;1.10;;;;;;;;;;10245558;28;20603;-69
2022/07/18 06:20:23;;;;;;;1.75;1.35;;;;;;;;;;10244134;28;20084;-69
2022/07/18 06:25:22;;;;;;;3.38;1.00;;;;;;;;;;10242836;28;20081;-68
2022/07/18 06:30:23;;;;;;;2.40;0.90;;;;;;;;;;10242882;28;20084;-68
2022/07/18 06:35:21;;;;;;;1.65;1.30;;;;;;;;;;10242024;28;20049;-68
2022/07/18 06:40:19;;;;;;;3.53;1.05;;;;;;;;;;10245947;28;20077;-68
2022/07/18 06:45:18;;;;;;;3.17;1.25;;;;;;;;;;10245714;28;20069;-68
2022/07/18 06:50:18;;;;;;;4.25;0.95;;;;;;;;;;10252543;28;20569;-68
2022/07/18 06:55:16;;;;;;;1.27;1.05;;;;;;;;;;10252141;28;20569;-69
2022/07/18 07:00:15;;;;;;;1.30;0.77;;;;;;;;;;10252235;28;20080;-69
2022/07/18 07:05:14;;;;;;;3.28;1.35;;;;;;;;;;10251252;28;20443;-68
2022/07/18 07:10:14;;;;;;;4.13;1.25;;;;;;;;;;10252606;28;20511;-69
2022/07/18 07:15:13;;;;;;;6.43;1.10;;;;;;;;;;10251658;28;20073;-69
2022/07/18 07:20:12;;;;;;;5.22;1.50;;;;;;;;;;10251505;28;20069;-68
2022/07/18 07:25:10;;;;;;;6.32;1.38;;;;;;;;;;10251769;28;20487;-69
2022/07/18 07:30:11;;;;;;;6.60;1.10;;;;;;;;;;10251727;28;20045;-69
2022/07/18 07:35:12;;;;;;;4.97;1.00;;;;;;;;;;10251125;28;20080;-69
2022/07/18 07:40:11;;;;;;;5.22;1.45;;;;;;;;;;10250919;28;20092;-69
2022/07/18 07:45:11;;;;;;;4.90;1.52;;;;;;;;;;10251541;28;20077;-69
2022/07/18 07:50:10;;;;;;;3.75;3.15;;;;;;;;;;10251284;28;20498;-69
2022/07/18 07:55:09;;;;;;;1.85;1.00;;;;;;;;;;10249952;28;20452;-70
2022/07/18 08:00:08;;;;;;;3.42;1.33;;;;;;;;;;10237076;28;20084;-70
2022/07/18 08:05:11;;;;;;;3.55;1.40;;;;;;;;;;10239663;28;20530;-69
2022/07/18 08:10:09;;;;;;;2.38;0.95;;;;;;;;;;10236838;28;20076;-68
2022/07/18 08:15:08;;;;;;;2.55;1.20;;;;;;;;;;10240225;28;20084;-69
2022/07/18 08:20:08;;;;;;;1.75;1.05;;;;;;;;;;10250171;28;20089;-70
2022/07/18 08:25:08;;;;;;;1.88;1.13;;;;;;;;;;10245864;28;20088;-69
2022/07/18 08:30:07;;;;;;;1.70;1.15;;;;;;;;;;10249865;28;20437;-69
2022/07/18 08:35:06;;;;;;;5.60;1.10;;;;;;;;;;10244872;28;20076;-69
2022/07/18 08:40:05;;;;;;;4.40;1.15;;;;;;;;;;10249133;28;20084;-69
2022/07/18 08:45:06;;;;;;;3.97;1.20;;;;;;;;;;10248727;28;20050;-69
2022/07/18 08:50:05;;;;;;;3.47;1.33;;;;;;;;;;10249320;28;20434;-69
2022/07/18 08:55:04;;;;;;;1.13;0.98;;;;;;;;;;10235427;28;20483;-68
2022/07/18 09:00:15;;;;;;;4.22;0.98;;;;;;;;;;10234683;28;20153;-69
2022/07/18 09:05:18;;;;;;;1.58;1.10;;;;;;;;;;10228290;28;20045;-68
2022/07/18 09:10:41;;;;;;;3.05;2.38;;;;;;;;;;10239691;28;20065;-68
2022/07/18 09:15:56;;;;;;;3.97;1.25;;;;;;;;;;10234741;28;20053;-68
2022/07/18 09:20:58;;;;;;;11.00;2.33;;;;;;;;;;10234543;28;20072;-69
2022/07/18 09:25:57;;;;;;;1.48;0.93;;;;;;;;;;10235201;28;20093;-69
2022/07/18 09:30:57;;;;;;;2.50;1.27;;;;;;;;;;10245591;28;20052;-69
2022/07/18 09:35:56;;;;;;;8.30;1.77;;;;;;;;;;10248286;28;20052;-69
2022/07/18 09:40:57;;;;;;;1.58;1.30;;;;;;;;;;10249087;28;20096;-69
2022/07/18 09:45:57;;;;;;;3.38;1.20;;;;;;;;;;10248034;28;20084;-69
2022/07/18 09:50:58;;;;;;;2.13;1.25;;;;;;;;;;10248303;28;20082;-69
2022/07/18 09:55:57;;;;;;;1.80;1.10;;;;;;;;;;10247835;28;20041;-69
2022/07/18 10:00:58;;;;;;;5.45;1.05;;;;;;;;;;10247472;28;20096;-70
2022/07/18 10:05:58;;;;;;;1.13;1.00;;;;;;;;;;10245891;28;20061;-70
2022/07/18 10:10:59;;;;;;;1.38;1.20;;;;;;;;;;10247701;28;20778;-70
2022/07/18 10:15:59;;;;;;;2.65;1.05;;;;;;;;;;10246970;28;20096;-70
2022/07/18 10:20:58;;;;;;;3.40;1.20;;;;;;;;;;10249118;28;20083;-70
2022/07/18 10:26:07;;;;;;;4.20;1.23;;;;;;;;;;10254944;28;20049;-70
2022/07/18 10:31:17;;;;;;;1.30;1.00;;;;;;;;;;10253502;28;20077;-70
2022/07/18 10:36:16;;;;;;;1.55;1.38;;;;;;;;;;10255898;28;20085;-69
2022/07/18 10:41:15;;;;;;;3.83;1.00;;;;;;;;;;10253199;28;20096;-70
2022/07/18 10:46:13;;;;;;;3.85;1.35;;;;;;;;;;10255333;28;20080;-70
2022/07/18 10:51:15;;;;;;;5.40;1.40;;;;;;;;;;10254134;28;20076;-70
2022/07/18 10:56:14;;;;;;;3.28;1.30;;;;;;;;;;10239865;28;20041;-69
2022/07/18 11:01:16;;;;;;;4.93;1.70;;;;;;;;;;10240109;28;20115;-68
2022/07/18 11:06:16;;;;;;;4.53;1.30;;;;;;;;;;10239970;28;20072;-69
2022/07/18 11:11:15;;;;;;;2.22;1.80;;;;;;;;;;10243110;28;20104;-69
2022/07/18 11:16:14;;;;;;;1.80;1.30;;;;;;;;;;10239312;28;20045;-69
2022/07/18 11:21:18;;;;;;;3.20;1.20;;;;;;;;;;10239412;28;20089;-70
2022/07/18 11:26:19;;;;;;;1.42;1.10;;;;;;;;;;10238838;28;20080;-69
2022/07/18 11:31:20;;;;;;;3.65;1.50;;;;;;;;;;10250615;28;20493;-69
2022/07/18 11:36:21;;;;;;;2.60;1.08;;;;;;;;;;10252910;28;20423;-69
2022/07/18 11:41:20;;;;;;;5.60;1.85;;;;;;;;;;10254776;28;20092;-70
2022/07/18 11:46:19;;;;;;;1.80;1.50;;;;;;;;;;10249693;28;20065;-69
2022/07/18 11:51:18;;;;;;;2.15;1.58;;;;;;;;;;10250691;28;20446;-69
2022/07/18 11:56:18;;;;;;;2.75;1.10;;;;;;;;;;10252059;28;20073;-68
2022/07/18 12:01:17;;;;;;;2.78;1.67;;;;;;;;;;10251571;28;20411;-69
2022/07/18 12:06:16;;;;;;;3.08;1.63;;;;;;;;;;10244844;28;20046;-69
2022/07/18 12:11:17;;;;;;;4.20;1.15;;;;;;;;;;10252010;28;20080;-69
2022/07/18 12:16:36;;;;;;;4.57;2.03;;;;;;;;;;10250505;28;20442;-69
2022/07/18 12:21:44;;;;;;;3.30;1.70;;;;;;;;;;10245080;28;20495;-70
2022/07/18 12:26:42;;;;;;;3.67;1.45;;;;;;;;;;10246625;28;20057;-68
2022/07/18 12:31:46;;;;;;;4.43;1.73;;;;;;;;;;10247727;28;20363;-68
2022/07/18 12:36:52;;;;;;;2.35;1.92;;;;;;;;;;10249839;28;20068;-69
2022/07/18 12:41:58;;;;;;;2.20;1.47;;;;;;;;;;10247001;28;20094;-68
2022/07/18 12:46:56;;;;;;;8.27;1.73;;;;;;;;;;10247214;28;20466;-69
2022/07/18 12:51:56;;;;;;;2.35;2.10;;;;;;;;;;10248528;28;20502;-68
2022/07/18 12:56:55;;;;;;;7.25;2.00;;;;;;;;;;10248809;28;20049;-68
2022/07/18 13:01:53;;;;;;;2.80;2.13;;;;;;;;;;10248104;28;20189;-68
2022/07/18 13:06:51;;;;;;;2.05;1.50;;;;;;;;;;10248003;28;20148;-68
2022/07/18 13:11:51;;;;;;;1.73;1.50;;;;;;;;;;10243163;28;20099;-68
2022/07/18 13:16:51;;;;;;;3.17;1.17;;;;;;;;;;10242756;28;20331;-68
2022/07/18 13:21:49;;;;;;;2.92;1.88;;;;;;;;;;10248355;28;20078;-68
2022/07/18 13:26:48;;;;;;;1.63;1.25;;;;;;;;;;10242830;28;20459;-68
2022/07/18 13:31:50;;;;;;;3.75;2.58;;;;;;;;;;10241874;28;20081;-68
2022/07/18 13:36:49;;;;;;;2.20;1.85;;;;;;;;;;10242445;28;20041;-68
2022/07/18 13:41:48;;;;;;;3.42;2.47;;;;;;;;;;10242446;28;20084;-68
2022/07/18 13:46:48;;;;;;;4.72;2.70;;;;;;;;;;10239852;28;20041;-68
2022/07/18 13:51:46;;;;;;;3.47;1.95;;;;;;;;;;10249762;28;20052;-69
2022/07/18 13:56:45;;;;;;;6.13;2.70;;;;;;;;;;10250286;28;20155;-68
2022/07/18 14:01:43;;;;;;;4.38;2.63;;;;;;;;;;10255267;28;20459;-67
2022/07/18 14:06:43;;;;;;;4.82;1.90;;;;;;;;;;10255817;28;20190;-68
2022/07/18 14:11:41;;;;;;;3.47;2.97;;;;;;;;;;10241943;28;20079;-69
2022/07/18 14:16:40;;;;;;;7.13;1.73;;;;;;;;;;10241220;28;20045;-68
2022/07/18 14:21:38;;;;;;;8.93;2.17;;;;;;;;;;10251960;28;20131;-68
2022/07/18 14:26:38;;;;;;;6.20;2.95;;;;;;;;;;10251570;28;20156;-68
2022/07/18 14:31:36;;;;;;;4.28;2.20;;;;;;;;;;10253053;28;20503;-68
2022/07/18 14:36:35;;;;;;;5.28;2.85;;;;;;;;;;10249764;28;20478;-68
2022/07/18 14:41:33;;;;;;;3.50;2.47;;;;;;;;;;10254221;28;20080;-68
2022/07/18 14:46:33;;;;;;;1.88;1.65;;;;;;;;;;10249601;28;20107;-67
2022/07/18 14:51:32;;;;;;;7.03;5.10;;;;;;;;;;10251913;28;20056;-67
2022/07/18 14:56:31;;;;;;;6.07;1.75;;;;;;;;;;10251044;28;20479;-68
2022/07/18 15:01:31;;;;;;;8.32;2.20;;;;;;;;;;10253107;28;20085;-68
2022/07/18 15:06:34;;;;;;;4.55;3.95;;;;;;;;;;10238376;28;20459;-68
2022/07/18 15:11:32;;;;;;;2.10;1.55;;;;;;;;;;10239778;28;20041;-69
2022/07/18 15:16:31;;;;;;;6.20;3.35;;;;;;;;;;10238910;28;20056;-68
2022/07/18 15:21:30;;;;;;;13.65;10.55;;;;;;;;;;10250671;28;20084;-69
2022/07/18 15:26:30;;;;;;;5.25;2.42;;;;;;;;;;10252094;28;20582;-70
2022/07/18 15:31:28;;;;;;;9.05;4.05;;;;;;;;;;10251257;28;20454;-69
2022/07/18 15:36:27;;;;;;;10.05;4.80;;;;;;;;;;10251576;28;20052;-68
2022/07/18 15:41:25;;;;;;;11.45;4.55;;;;;;;;;;10241509;28;20052;-67
2022/07/18 15:46:25;;;;;;;7.45;2.80;;;;;;;;;;10246249;28;20076;-68
2022/07/18 15:51:24;;;;;;;7.43;3.65;;;;;;;;;;10252580;28;20045;-69
2022/07/18 15:56:22;;;;;;;4.80;2.47;;;;;;;;;;10252623;28;20446;-70
2022/07/18 16:01:21;;;;;;;3.58;2.00;;;;;;;;;;10237642;28;20080;-69
2022/07/18 16:06:21;;;;;;;7.20;1.90;;;;;;;;;;10237414;28;20037;-70
2022/07/18 16:11:20;;;;;;;6.82;2.67;;;;;;;;;;10236754;28;20132;-69
2022/07/18 16:16:18;;;;;;;3.40;3.05;;;;;;;;;;10248931;28;20049;-68
2022/07/18 16:21:17;;;;;;;2.65;2.00;;;;;;;;;;10239748;28;20073;-69
2022/07/18 16:26:16;;;;;;;1.75;1.30;;;;;;;;;;10249903;28;20096;-69
2022/07/18 16:31:15;;;;;;;5.60;2.80;;;;;;;;;;10236818;28;20038;-69
2022/07/18 16:36:13;;;;;;;4.55;3.50;;;;;;;;;;10237138;28;20053;-69
2022/07/18 16:41:12;;;;;;;6.15;2.17;;;;;;;;;;10230073;28;20156;-69
2022/07/18 16:46:12;;;;;;;6.68;2.38;;;;;;;;;;10247649;28;20084;-69
2022/07/18 16:51:10;;;;;;;4.57;2.63;;;;;;;;;;10248867;28;20068;-68
2022/07/18 16:56:10;;;;;;;2.45;2.25;;;;;;;;;;10248812;28;20104;-68
2022/07/18 17:01:09;;;;;;;4.07;2.25;;;;;;;;;;10247899;28;20073;-67
2022/07/18 17:06:09;;;;;;;4.45;2.08;;;;;;;;;;10235614;28;20081;-67
2022/07/18 17:11:08;;;;;;;8.40;2.30;;;;;;;;;;10234135;28;20496;-67
2022/07/18 17:16:06;;;;;;;5.22;2.55;;;;;;;;;;10235056;28;20065;-67
2022/07/18 17:21:05;;;;;;;3.90;1.95;;;;;;;;;;10242805;28;20088;-67
2022/07/18 17:26:06;;;;;;;5.18;4.25;;;;;;;;;;10234224;28;20100;-66
2022/07/18 17:31:06;;;;;;;8.55;3.22;;;;;;;;;;10234480;28;20049;-67
2022/07/18 17:36:06;;;;;;;7.03;5.00;;;;;;;;;;10246401;28;20088;-66
2022/07/18 17:41:06;;;;;;;7.38;5.57;;;;;;;;;;10247682;28;20092;-67
2022/07/18 17:46:07;;;;;;;4.97;4.50;;;;;;;;;;10247689;28;20089;-67
2022/07/18 17:51:06;;;;;;;8.00;3.30;;;;;;;;;;10242669;28;20041;-67
2022/07/18 17:56:08;;;;;;;2.75;2.47;;;;;;;;;;10246054;28;20085;-66
2022/07/18 18:01:06;;;;;;;3.70;2.58;;;;;;;;;;10246427;28;20495;-66
2022/07/18 18:06:05;;;;;;;5.25;2.78;;;;;;;;;;10243660;28;20088;-68
2022/07/18 18:11:03;;;;;;;4.82;3.03;;;;;;;;;;10247425;28;20068;-67
2022/07/18 18:16:03;;;;;;;5.90;2.58;;;;;;;;;;10247849;28;20684;-68
2022/07/18 18:21:02;;;;;;;2.35;1.83;;;;;;;;;;10248301;28;20506;-67
2022/07/18 18:26:00;;;;;;;4.38;1.85;;;;;;;;;;10247002;28;20093;-67
2022/07/18 18:30:59;;;;;;;15.38;2.83;;;;;;;;;;10242434;28;20113;-68
2022/07/18 18:35:58;;;;;;;8.10;3.05;;;;;;;;;;10243609;28;20072;-68
2022/07/18 18:40:57;;;;;;;2.58;1.88;;;;;;;;;;10247336;28;20079;-67
2022/07/18 18:45:55;;;;;;;6.45;2.75;;;;;;;;;;10253552;28;20088;-67
2022/07/18 18:50:54;;;;;;;7.15;3.70;;;;;;;;;;10253131;28;20069;-67
2022/07/18 18:55:54;;;;;;;4.25;2.22;;;;;;;;;;10254003;28;20083;-67
2022/07/18 19:00:52;;;;;;;5.53;2.00;;;;;;;;;;10252772;28;20072;-67
2022/07/18 19:05:51;;;;;;;2.88;2.20;;;;;;;;;;10247537;28;20088;-68
2022/07/18 19:10:49;;;;;;;12.10;2.70;;;;;;;;;;10239633;28;20435;-68
2022/07/18 19:15:51;;;;;;;2.90;1.88;;;;;;;;;;10239200;28;20046;-67
2022/07/18 19:20:50;;;;;;;2.70;2.45;;;;;;;;;;10239228;28;20045;-67
2022/07/18 19:25:48;;;;;;;4.53;2.00;;;;;;;;;;10240983;28;20099;-67
2022/07/18 19:30:47;;;;;;;4.95;2.55;;;;;;;;;;10238589;28;20076;-67
2022/07/18 19:35:46;;;;;;;3.75;2.33;;;;;;;;;;10238343;28;20056;-67
2022/07/18 19:40:45;;;;;;;3.05;2.33;;;;;;;;;;10238281;28;20045;-69
2022/07/18 19:45:44;;;;;;;7.85;2.00;;;;;;;;;;10246351;28;20491;-67
2022/07/18 19:50:42;;;;;;;2.60;2.38;;;;;;;;;;10244674;28;20069;-66
2022/07/18 19:55:42;;;;;;;4.00;2.45;;;;;;;;;;10245718;28;20065;-66
2022/07/18 20:00:40;;;;;;;3.40;2.20;;;;;;;;;;10246190;28;20522;-66
2022/07/18 20:05:39;;;;;;;5.72;2.17;;;;;;;;;;10247453;28;20557;-66
2022/07/18 20:10:37;;;;;;;2.53;2.00;;;;;;;;;;10250187;28;20052;-67
2022/07/18 20:15:37;;;;;;;2.75;1.80;;;;;;;;;;10244302;28;20057;-67
2022/07/18 20:20:35;;;;;;;7.72;2.20;;;;;;;;;;10241197;28;20065;-68
2022/07/18 20:25:34;;;;;;;2.20;1.70;;;;;;;;;;10246141;28;20085;-67
2022/07/18 20:30:35;;;;;;;2.10;1.80;;;;;;;;;;10248514;28;20069;-67
2022/07/18 20:35:35;;;;;;;2.33;1.38;;;;;;;;;;10249292;28;20069;-65
2022/07/18 20:40:34;;;;;;;5.18;1.50;;;;;;;;;;10245502;28;20507;-66
2022/07/18 20:45:32;;;;;;;3.63;1.38;;;;;;;;;;10238737;28;20491;-67
2022/07/18 20:50:31;;;;;;;2.45;1.70;;;;;;;;;;10247378;28;20073;-66
2022/07/18 20:55:33;;;;;;;5.22;1.65;;;;;;;;;;10239456;28;20068;-66
2022/07/18 21:00:31;;;;;;;3.58;1.70;;;;;;;;;;10245941;28;20076;-67
2022/07/18 21:05:29;;;;;;;3.10;1.80;;;;;;;;;;10246529;28;20103;-67
2022/07/18 21:10:28;;;;;;;4.35;1.40;;;;;;;;;;10247029;28;20096;-67
2022/07/18 21:15:27;;;;;;;2.42;1.67;;;;;;;;;;10247089;28;20494;-67
2022/07/18 21:20:27;;;;;;;1.90;1.50;;;;;;;;;;10241630;28;20081;-66
2022/07/18 21:25:26;;;;;;;3.05;1.17;;;;;;;;;;10247021;28;20098;-67
2022/07/18 21:30:24;;;;;;;2.00;1.40;;;;;;;;;;10240890;28;20499;-66
2022/07/18 21:35:24;;;;;;;2.65;1.50;;;;;;;;;;10241991;28;20487;-66
2022/07/18 21:40:22;;;;;;;6.10;1.38;;;;;;;;;;10246912;28;20075;-67
2022/07/18 21:45:21;;;;;;;3.38;1.42;;;;;;;;;;10246844;28;20464;-66
2022/07/18 21:50:19;;;;;;;1.63;1.30;;;;;;;;;;10246363;28;20065;-66
2022/07/18 21:55:19;;;;;;;2.97;1.40;;;;;;;;;;10246264;28;20045;-68
2022/07/18 22:00:17;;;;;;;3.08;1.27;;;;;;;;;;10245988;28;20589;-67
2022/07/18 22:05:15;;;;;;;2.08;1.27;;;;;;;;;;10242946;28;20089;-66
2022/07/18 22:10:14;;;;;;;4.88;1.60;;;;;;;;;;10246558;28;20061;-67
2022/07/18 22:15:16;;;;;;;4.05;1.33;;;;;;;;;;10246080;28;20057;-67
2022/07/18 22:20:15;;;;;;;5.07;1.67;;;;;;;;;;10255530;28;20081;-67
2022/07/18 22:25:14;;;;;;;4.90;1.90;;;;;;;;;;10256684;28;20088;-68
2022/07/18 22:30:14;;;;;;;2.17;1.48;;;;;;;;;;10253354;28;20085;-66
2022/07/18 22:35:12;;;;;;;3.53;1.63;;;;;;;;;;10240686;28;20065;-66
2022/07/18 22:40:12;;;;;;;2.63;1.90;;;;;;;;;;10240169;28;20137;-67
2022/07/18 22:45:10;;;;;;;2.80;1.50;;;;;;;;;;10239602;28;20093;-66
2022/07/18 22:50:11;;;;;;;2.30;1.90;;;;;;;;;;10254287;28;20077;-66
2022/07/18 22:55:09;;;;;;;3.25;1.38;;;;;;;;;;10251882;28;20089;-66
2022/07/18 23:00:09;;;;;;;6.00;2.03;;;;;;;;;;10252272;28;20509;-65
2022/07/18 23:10:21;;;;;;;;;;;;;;;;;;10246508;28;20077;-66
2022/07/18 23:15:21;;;;;;;6.47;2.42;;;;;;;;;;10251989;28;20039;-66
2022/07/18 23:20:20;;;;;;;1.73;1.63;;;;;;;;;;10250508;28;20049;-66
2022/07/18 23:25:18;;;;;;;2.35;1.80;;;;;;;;;;10251308;28;20084;-66
2022/07/18 23:30:18;;;;;;;4.47;1.60;;;;;;;;;;10250351;28;20085;-67
2022/07/18 23:35:19;;;;;;;1.73;1.30;;;;;;;;;;10251489;28;20054;-68
2022/07/18 23:40:18;;;;;;;5.28;1.65;;;;;;;;;;10251387;28;20084;-67
2022/07/18 23:45:16;;;;;;;3.33;1.50;;;;;;;;;;10250720;28;20084;-67
2022/07/18 23:50:15;;;;;;;2.60;1.58;;;;;;;;;;10250419;28;20077;-66
2022/07/18 23:55:16;;;;;;;2.35;1.20;;;;;;;;;;10249887;28;20052;-66
